Time;durP1;ratioP1;P1;durP2;ratioP2;P2;SDS_P1;SDS_P2;PMS_P1;PMS_P2;Temp;Humidity;BMP_temperature;BMP_pressure;BME280_temperature;BME280_humidity;BME280_pressure;Samples;Min_cycle;Max_cycle;Signal;HPM_P1;HPM_P2
2023/10/31 00:02:58;;;;;;;0.20;0.20;;;;;;;;;;20671189;28;20196;-68
2023/10/31 00:13:00;;;;;;;0.40;0.30;;;;;;;;;;20647536;28;20598;-68
2023/10/31 00:23:02;;;;;;;0.20;0.20;;;;;;;;;;20606984;28;20236;-68
2023/10/31 00:33:04;;;;;;;0.23;0.23;;;;;;;;;;20611640;28;20274;-68
2023/10/31 00:43:06;;;;;;;0.30;0.30;;;;;;;;;;20617050;28;20309;-68
2023/10/31 00:53:08;;;;;;;0.50;0.37;;;;;;;;;;20661895;28;20611;-68
2023/10/31 01:03:10;;;;;;;0.20;0.20;;;;;;;;;;20657170;28;20278;-68
2023/10/31 01:13:11;;;;;;;0.83;0.37;;;;;;;;;;20629450;28;20228;-69
2023/10/31 01:23:14;;;;;;;0.30;0.30;;;;;;;;;;20659234;28;20243;-68
2023/10/31 01:33:16;;;;;;;0.20;0.20;;;12.30;99.90;;;;;;20642669;28;20293;-68
2023/10/31 01:43:34;;;;;;;0.20;0.20;;;;;;;;;;20633739;28;20220;-68
2023/10/31 01:53:36;;;;;;;0.20;0.20;;;12.60;99.90;;;;;;20636975;28;20706;-68
2023/10/31 02:03:38;;;;;;;0.60;0.20;;;;;;;;;;20652287;28;20299;-68
2023/10/31 02:13:41;;;;;;;0.30;0.30;;;;;;;;;;20662851;28;20239;-69
2023/10/31 02:23:42;;;;;;;0.20;0.20;;;;;;;;;;20596177;23;20758;-68
2023/10/31 02:33:44;;;;;;;0.30;0.30;;;;;;;;;;20487734;28;20221;-69
2023/10/31 02:43:46;;;;;;;0.80;0.33;;;;;;;;;;20482022;28;20221;-68
2023/10/31 02:53:48;;;;;;;0.23;0.23;;;;;;;;;;20469387;28;20727;-69
2023/10/31 03:03:50;;;;;;;0.63;0.40;;;;;;;;;;20516541;28;20213;-69
2023/10/31 03:13:53;;;;;;;0.20;0.20;;;;;;;;;;20457365;28;20264;-68
2023/10/31 03:23:55;;;;;;;0.20;0.20;;;;;;;;;;20472377;28;20221;-69
2023/10/31 03:33:57;;;;;;;0.27;0.20;;;;;;;;;;20473518;29;20696;-69
2023/10/31 03:44:00;;;;;;;0.50;0.30;;;;;;;;;;20484308;28;20709;-68
2023/10/31 03:54:01;;;;;;;0.83;0.47;;;;;;;;;;20467808;29;20763;-69
2023/10/31 04:04:03;;;;;;;0.40;0.30;;;;;;;;;;20471414;28;20213;-68
2023/10/31 04:14:05;;;;;;;0.47;0.30;;;;;;;;;;20447710;28;20683;-68
2023/10/31 04:24:07;;;;;;;0.63;0.30;;;;;;;;;;20457381;29;20295;-69
2023/10/31 04:34:09;;;;;;;1.07;0.40;;;;;;;;;;20466842;28;20233;-68
2023/10/31 04:44:12;;;;;;;1.03;0.30;;;;;;;;;;20482929;28;20291;-68
2023/10/31 04:54:14;;;;;;;0.30;0.30;;;;;;;;;;20483588;28;20657;-68
2023/10/31 05:04:16;;;;;;;0.53;0.37;;;;;;;;;;20466183;28;20241;-68
2023/10/31 05:14:18;;;;;;;0.80;0.30;;;;;;;;;;20469679;28;20213;-67
2023/10/31 05:24:21;;;;;;;0.40;0.33;;;;;;;;;;20525906;28;20260;-68
2023/10/31 05:34:22;;;;;;;0.20;0.20;;;;;;;;;;20494053;28;20221;-69
2023/10/31 05:44:24;;;;;;;0.73;0.40;;;;;;;;;;20499699;28;20272;-70
2023/10/31 05:54:26;;;;;;;0.73;0.37;;;;;;;;;;20508315;28;20284;-69
2023/10/31 06:04:29;;;;;;;0.53;0.40;;;;;;;;;;20515800;28;20240;-69
2023/10/31 06:14:32;;;;;;;0.30;0.30;;;;;;;;;;20511773;28;20225;-69
2023/10/31 06:24:33;;;;;;;2.60;0.40;;;;;;;;;;20462481;28;20759;-69
2023/10/31 06:34:35;;;;;;;0.40;0.33;;;;;;;;;;20459559;28;20272;-69
2023/10/31 06:44:38;;;;;;;1.67;0.50;;;;;;;;;;20470983;28;20237;-69
2023/10/31 06:54:39;;;;;;;2.50;0.40;;;;;;;;;;20470361;29;20201;-69
2023/10/31 07:04:42;;;;;;;0.40;0.30;;;;;;;;;;20504108;28;20222;-70
2023/10/31 07:14:44;;;;;;;0.53;0.40;;;;;;;;;;20518354;28;20284;-69
2023/10/31 07:24:46;;;;;;;0.40;0.40;;;;;;;;;;20470818;28;20225;-71
2023/10/31 07:34:48;;;;;;;0.77;0.47;;;;;;;;;;20454265;28;20273;-70
2023/10/31 07:44:50;;;;;;;0.20;0.20;;;;;;;;;;20474514;29;20311;-70
2023/10/31 07:54:53;;;;;;;0.83;0.50;;;;;;;;;;20496788;28;20276;-70
2023/10/31 08:04:54;;;;;;;0.40;0.23;;;;;;;;;;20469644;28;20225;-70
2023/10/31 08:14:58;;;;;;;0.43;0.40;;;;;;;;;;20473369;28;20209;-70
2023/10/31 08:25:00;;;;;;;0.30;0.30;;;;;;;;;;20507825;23;20299;-66
2023/10/31 08:35:03;;;;;;;0.83;0.40;;;;;;;;;;20507753;28;20561;-67
2023/10/31 08:45:05;;;;;;;2.50;0.50;;;12.10;99.90;;;;;;20512472;28;20268;-67
2023/10/31 08:55:07;;;;;;;0.30;0.30;;;12.30;99.90;;;;;;20525071;28;20287;-67
2023/10/31 09:05:09;;;;;;;1.87;0.40;;;;;;;;;;20530463;28;20225;-67
2023/10/31 09:15:13;;;;;;;0.70;0.50;;;;;;;;;;20480574;28;20225;-67
2023/10/31 09:25:14;;;;;;;1.60;0.40;;;;;;;;;;20490653;28;20641;-67
2023/10/31 09:35:16;;;;;;;0.80;0.50;;;;;;;;;;20481749;28;20224;-67
2023/10/31 09:45:18;;;;;;;1.90;0.60;;;13.10;99.90;;;;;;20487165;28;20253;-67
2023/10/31 09:55:20;;;;;;;1.13;0.47;;;;;;;;;;20479053;28;20213;-67
2023/10/31 10:05:23;;;;;;;2.73;1.10;;;;;;;;;;20487283;28;20232;-67
2023/10/31 10:15:25;;;;;;;1.37;0.60;;;;;;;;;;20517404;28;20229;-67
2023/10/31 10:25:28;;;;;;;2.97;0.47;;;;;;;;;;20486064;28;20280;-67
2023/10/31 10:35:30;;;;;;;2.53;0.50;;;;;;;;;;20512248;28;20287;-67
2023/10/31 10:45:32;;;;;;;1.20;0.63;;;;;;;;;;20493941;28;20700;-67
2023/10/31 10:55:39;;;;;;;1.60;0.60;;;13.00;99.90;;;;;;20505202;28;20217;-67
2023/10/31 11:05:41;;;;;;;0.83;0.43;;;;;;;;;;20486420;28;20503;-67
2023/10/31 11:15:43;;;;;;;1.07;0.63;;;;;;;;;;20487770;28;20657;-67
2023/10/31 11:25:44;;;;;;;3.47;1.70;;;13.50;99.90;;;;;;20521524;28;20212;-67
2023/10/31 11:36:01;;;;;;;1.00;0.40;;;13.10;99.90;;;;;;20503109;28;20861;-67
2023/10/31 11:46:03;;;;;;;1.00;0.50;;;;;;;;;;20469182;29;20723;-67
2023/10/31 11:56:06;;;;;;;0.57;0.37;;;13.20;99.90;;;;;;20519038;28;20228;-67
2023/10/31 12:06:08;;;;;;;2.87;0.73;;;;;;;;;;20466283;28;20229;-67
2023/10/31 12:16:10;;;;;;;0.30;0.30;;;;;;;;;;20490438;28;20245;-68
2023/10/31 12:26:12;;;;;;;0.97;0.40;;;;;;;;;;20503224;28;20225;-68
2023/10/31 12:36:14;;;;;;;1.17;0.60;;;;;;;;;;20480043;28;20224;-67
2023/10/31 12:46:29;;;;;;;1.60;0.40;;;14.50;99.90;;;;;;20469559;28;20225;-67
2023/10/31 12:56:42;;;;;;;0.77;0.40;;;14.60;99.90;;;;;;20487364;28;20246;-67
2023/10/31 13:06:54;;;;;;;0.80;0.33;;;;;;;;;;20483700;28;20232;-68
2023/10/31 13:16:56;;;;;;;0.53;0.37;;;;;;;;;;20478461;28;20208;-68
2023/10/31 13:26:59;;;;;;;1.17;0.30;;;;;;;;;;20461146;28;20222;-68
2023/10/31 13:37:02;;;;;;;0.40;0.33;;;;;;;;;;20469700;28;20217;-68
2023/10/31 13:47:04;;;;;;;0.97;0.47;;;;;;;;;;20515470;28;20225;-67
2023/10/31 13:57:06;;;;;;;2.10;0.40;;;;;;;;;;20498883;28;20221;-68
2023/10/31 14:07:07;;;;;;;0.70;0.30;;;14.00;99.90;;;;;;20511807;28;20252;-68
2023/10/31 14:17:11;;;;;;;0.90;0.50;;;;;;;;;;20504130;28;20783;-68
2023/10/31 14:27:13;;;;;;;1.07;0.40;;;;;;;;;;20550259;23;20302;-69
2023/10/31 14:37:19;;;;;;;0.50;0.40;;;;;;;;;;20584675;28;20224;-69
2023/10/31 14:47:23;;;;;;;0.47;0.43;;;;;;;;;;20570827;28;20284;-69
2023/10/31 14:57:24;;;;;;;0.57;0.30;;;;;;;;;;20532022;28;20233;-69
2023/10/31 15:07:26;;;;;;;0.73;0.40;;;;;;;;;;20522368;28;20268;-69
2023/10/31 15:17:28;;;;;;;0.63;0.40;;;;;;;;;;20523128;28;20287;-69
2023/10/31 15:27:30;;;;;;;0.83;0.53;;;;;;;;;;20510984;28;20772;-70
2023/10/31 15:37:32;;;;;;;1.63;0.47;;;;;;;;;;20538257;28;20217;-69
2023/10/31 15:47:34;;;;;;;0.73;0.50;;;;;;;;;;20521088;28;20581;-69
2023/10/31 15:57:35;;;;;;;1.73;0.50;;;;;;;;;;20536715;28;20680;-69
2023/10/31 16:07:38;;;;;;;0.53;0.30;;;;;;;;;;20554744;28;20221;-69
2023/10/31 16:17:39;;;;;;;0.63;0.40;;;;;;;;;;20541487;28;20212;-69
2023/10/31 16:27:42;;;;;;;0.50;0.40;;;;;;;;;;20524443;28;20228;-68
2023/10/31 16:37:44;;;;;;;0.47;0.30;;;;;;;;;;20521512;28;20267;-68
2023/10/31 16:47:46;;;;;;;0.33;0.30;;;;;;;;;;20524127;28;20216;-68
2023/10/31 16:57:48;;;;;;;0.33;0.30;;;;;;;;;;20533617;28;20213;-68
2023/10/31 17:07:52;;;;;;;2.10;0.50;;;;;;;;;;20544554;28;20212;-68
2023/10/31 17:17:54;;;;;;;0.60;0.40;;;;;;;;;;20558313;28;20216;-68
2023/10/31 17:27:56;;;;;;;0.53;0.37;;;;;;;;;;20530189;28;20791;-68
2023/10/31 17:37:57;;;;;;;0.37;0.37;;;;;;;;;;20535646;28;20220;-68
2023/10/31 17:48:00;;;;;;;0.53;0.50;;;;;;;;;;20545432;28;20248;-69
2023/10/31 17:58:02;;;;;;;0.77;0.40;;;;;;;;;;20563341;28;20597;-68
2023/10/31 18:08:04;;;;;;;0.50;0.40;;;;;;;;;;20523541;28;20279;-68
2023/10/31 18:18:05;;;;;;;1.20;0.40;;;;;;;;;;20528261;28;20228;-68
2023/10/31 18:28:09;;;;;;;0.47;0.40;;;;;;;;;;20563554;28;20715;-68
2023/10/31 18:38:11;;;;;;;0.80;0.50;;;;;;;;;;20534964;28;20208;-69
2023/10/31 18:48:13;;;;;;;1.23;0.53;;;;;;;;;;20540514;28;20244;-69
2023/10/31 18:58:15;;;;;;;0.37;0.33;;;;;;;;;;20530970;28;20228;-70
2023/10/31 19:08:17;;;;;;;0.50;0.33;;;;;;;;;;20518382;28;20232;-70
2023/10/31 19:18:22;;;;;;;0.63;0.40;;;;;;;;;;20518752;28;20311;-71
2023/10/31 19:28:23;;;;;;;1.23;0.40;;;;;;;;;;20547566;28;20237;-69
2023/10/31 19:38:26;;;;;;;0.40;0.40;;;;;;;;;;20516306;28;20271;-69
2023/10/31 19:48:28;;;;;;;1.57;0.40;;;12.70;99.90;;;;;;20546534;28;20244;-70
2023/10/31 19:58:30;;;;;;;0.60;0.30;;;;;;;;;;20551206;28;20574;-70
2023/10/31 20:08:32;;;;;;;2.23;0.40;;;;;;;;;;20562625;28;20220;-70
2023/10/31 20:18:35;;;;;;;0.73;0.53;;;;;;;;;;20535190;28;20225;-70
2023/10/31 20:39:02;;;;;;;0.83;0.37;;;;;;;;;;20502609;28;20761;-66
2023/10/31 20:49:06;;;;;;;1.00;0.50;;;;;;;;;;20458108;29;20237;-66
2023/10/31 20:59:07;;;;;;;0.90;0.50;;;;;;;;;;20446023;28;20249;-66
2023/10/31 21:09:10;;;;;;;1.47;0.50;;;;;;;;;;20478230;28;20240;-66
2023/10/31 21:19:12;;;;;;;4.00;0.87;;;;;;;;;;20446758;29;20581;-66
2023/10/31 21:29:15;;;;;;;1.23;0.50;;;;;;;;;;20464153;28;20232;-66
2023/10/31 21:39:18;;;;;;;0.60;0.43;;;;;;;;;;20466241;28;20236;-66
2023/10/31 21:49:20;;;;;;;1.93;0.40;;;;;;;;;;20468718;28;20292;-66
2023/10/31 21:59:22;;;;;;;3.07;2.00;;;12.40;99.90;;;;;;20461829;29;20624;-66
2023/10/31 22:09:25;;;;;;;2.07;1.20;;;;;;;;;;20465781;28;20280;-66
2023/10/31 22:19:26;;;;;;;1.93;0.73;;;;;;;;;;20465348;29;20217;-66
2023/10/31 22:29:28;;;;;;;1.40;0.70;;;;;;;;;;20459776;28;20225;-66
2023/10/31 22:39:30;;;;;;;0.80;0.40;;;;;;;;;;20489612;28;20716;-66
2023/10/31 22:49:32;;;;;;;1.20;0.50;;;;;;;;;;20482060;29;20233;-66
2023/10/31 22:59:34;;;;;;;0.30;0.30;;;;;;;;;;20472499;28;20244;-66
2023/10/31 23:09:36;;;;;;;0.43;0.30;;;;;;;;;;20452031;28;20649;-66
2023/10/31 23:19:38;;;;;;;0.67;0.30;;;;;;;;;;20464456;28;20233;-66
2023/10/31 23:29:39;;;;;;;0.70;0.50;;;;;;;;;;20456761;28;20288;-66
2023/10/31 23:39:41;;;;;;;0.87;0.47;;;;;;;;;;20456816;29;20229;-66
2023/10/31 23:49:43;;;;;;;0.30;0.30;;;;;;;;;;20458151;28;20233;-66
2023/10/31 23:59:45;;;;;;;0.67;0.43;;;;;;;;;;20451643;29;20222;-66
